createdAt,value
2023-02-01T00:02:32.409Z,8.85
2023-02-01T00:07:34.181Z,8.85
2023-02-01T00:12:36.425Z,9.85
2023-02-01T00:17:38.235Z,8.93
2023-02-01T00:22:39.987Z,8.70
2023-02-01T00:27:41.664Z,6.03
2023-02-01T00:32:43.470Z,11.82
2023-02-01T00:37:45.199Z,6.78
2023-02-01T00:42:47.089Z,8.63
2023-02-01T00:47:48.822Z,7.30
2023-02-01T00:52:50.639Z,10.35
2023-02-01T00:57:52.458Z,10.00
2023-02-01T01:02:54.428Z,8.85
2023-02-01T01:07:56.127Z,6.63
2023-02-01T01:12:58.046Z,8.05
2023-02-01T01:18:00.079Z,7.45
2023-02-01T01:23:02.349Z,9.02
2023-02-01T01:28:04.323Z,8.18
2023-02-01T01:33:06.395Z,10.23
2023-02-01T01:38:08.169Z,7.68
2023-02-01T01:43:17.371Z,8.30
2023-02-01T01:48:31.107Z,6.30
2023-02-01T01:53:38.839Z,8.73
2023-02-01T01:58:41.452Z,7.35
2023-02-01T02:03:48.800Z,6.85
2023-02-01T02:08:50.632Z,7.05
2023-02-01T02:13:55.929Z,9.88
2023-02-01T02:19:03.239Z,15.10
2023-02-01T02:24:33.930Z,7.50
2023-02-01T02:29:47.600Z,6.18
2023-02-01T02:34:58.115Z,10.77
2023-02-01T02:40:34.347Z,5.88
2023-02-01T02:46:19.675Z,9.32
2023-02-01T02:51:55.407Z,9.45
2023-02-01T02:57:17.182Z,8.85
2023-02-01T03:02:38.259Z,11.18
2023-02-01T03:08:02.315Z,5.65
2023-02-01T03:13:26.632Z,8.18
2023-02-01T03:18:41.184Z,8.13
2023-02-01T03:23:45.126Z,8.10
2023-02-01T03:28:55.514Z,9.57
2023-02-01T03:33:57.274Z,10.90
2023-02-01T03:39:09.245Z,8.90
2023-02-01T03:44:31.019Z,8.48
2023-02-01T03:49:39.160Z,10.27
2023-02-01T03:54:41.676Z,10.65
2023-02-01T03:59:46.037Z,9.68
2023-02-01T04:04:47.774Z,10.68
2023-02-01T04:09:49.569Z,7.78
2023-02-01T04:14:51.302Z,9.45
2023-02-01T04:19:55.226Z,12.75
2023-02-01T04:24:57.247Z,14.60
2023-02-01T04:29:59.029Z,10.27
2023-02-01T04:35:00.825Z,8.07
2023-02-01T04:40:04.845Z,13.23
2023-02-01T04:45:07.414Z,10.77
2023-02-01T04:50:11.527Z,11.48
2023-02-01T04:55:14.450Z,9.18
2023-02-01T05:00:16.948Z,8.35
2023-02-01T05:05:18.905Z,11.00
2023-02-01T05:10:21.289Z,8.23
2023-02-01T05:15:23.301Z,7.40
2023-02-01T05:20:25.635Z,11.73
2023-02-01T05:25:27.381Z,6.75
2023-02-01T05:30:29.387Z,11.43
2023-02-01T05:35:31.733Z,10.90
2023-02-01T05:40:33.750Z,5.43
2023-02-01T05:45:35.596Z,10.90
2023-02-01T05:50:37.972Z,7.45
2023-02-01T05:55:40.075Z,9.70
2023-02-01T06:00:42.130Z,6.55
2023-02-01T06:05:48.152Z,8.45
2023-02-01T06:10:50.028Z,10.40
2023-02-01T06:15:52.327Z,7.70
2023-02-01T06:20:58.380Z,13.15
2023-02-01T06:26:03.026Z,8.27
2023-02-01T06:31:07.922Z,10.00
2023-02-01T06:36:13.111Z,10.13
2023-02-01T06:41:21.538Z,7.68
2023-02-01T06:46:23.393Z,9.77
2023-02-01T06:51:27.674Z,8.43
2023-02-01T06:56:29.630Z,8.05
2023-02-01T07:01:31.446Z,10.20
2023-02-01T07:06:33.402Z,9.38
2023-02-01T07:11:36.059Z,9.10
2023-02-01T07:16:38.283Z,7.40
2023-02-01T07:21:40.244Z,8.65
2023-02-01T07:26:42.326Z,11.13
2023-02-01T07:31:44.298Z,11.15
2023-02-01T07:36:46.499Z,11.05
2023-02-01T07:41:48.596Z,8.85
2023-02-01T07:46:51.153Z,11.20
2023-02-01T07:51:53.588Z,12.48
2023-02-01T07:56:56.169Z,9.60
2023-02-01T08:01:58.449Z,7.63
2023-02-01T08:07:00.294Z,7.03
2023-02-01T08:12:02.376Z,8.60
2023-02-01T08:17:04.342Z,11.95
2023-02-01T08:22:07.736Z,8.70
2023-02-01T08:27:09.510Z,8.45
2023-02-01T08:32:11.400Z,9.88
2023-02-01T08:37:13.455Z,9.05
2023-02-01T08:42:33.722Z,7.15
2023-02-01T08:47:36.207Z,12.85
2023-02-01T08:52:38.357Z,7.32
2023-02-01T08:57:40.613Z,7.65
2023-02-01T09:02:42.848Z,6.82
2023-02-01T09:07:44.664Z,6.65
2023-02-01T09:12:46.387Z,8.85
2023-02-01T09:17:48.710Z,12.80
2023-02-01T09:22:51.328Z,10.80
2023-02-01T09:27:53.271Z,14.40
2023-02-01T09:32:54.956Z,10.75
2023-02-01T09:37:56.756Z,12.80
2023-02-01T09:43:22.527Z,13.32
2023-02-01T09:48:31.858Z,9.48
2023-02-01T09:53:38.317Z,13.52
2023-02-01T09:58:44.990Z,8.95
2023-02-01T10:03:47.366Z,10.20
2023-02-01T10:09:23.029Z,9.98
2023-02-01T10:14:53.077Z,7.63
2023-02-01T10:20:15.840Z,7.45
2023-02-01T10:25:23.406Z,9.90
2023-02-01T10:30:31.772Z,7.88
2023-02-01T10:35:39.524Z,9.68
2023-02-01T10:40:41.791Z,11.98
2023-02-01T10:45:44.175Z,7.70
2023-02-01T10:50:54.637Z,7.80
2023-02-01T10:55:57.096Z,6.72
2023-02-01T11:01:07.824Z,6.65
2023-02-01T11:06:39.595Z,5.93
2023-02-01T11:11:47.525Z,8.23
2023-02-01T11:16:51.326Z,7.32
2023-02-01T11:21:55.795Z,5.57
2023-02-01T11:26:58.889Z,3.72
2023-02-01T11:32:01.398Z,7.03
2023-02-01T11:37:04.495Z,7.13
2023-02-01T11:42:14.982Z,6.85
2023-02-01T11:47:32.643Z,6.07
2023-02-01T11:53:07.795Z,6.78
2023-02-01T11:58:40.330Z,10.40
2023-02-01T12:04:03.649Z,7.20
2023-02-01T12:09:35.645Z,7.10
2023-02-01T12:15:06.031Z,6.05
2023-02-01T12:20:33.528Z,5.15
2023-02-01T12:25:59.581Z,8.57
2023-02-01T12:31:35.928Z,9.95
2023-02-01T12:37:01.621Z,7.05
2023-02-01T12:42:18.243Z,13.90
2023-02-01T12:47:30.421Z,7.70
2023-02-01T12:52:41.267Z,7.40
2023-02-01T12:57:47.223Z,10.35
2023-02-01T13:03:02.104Z,6.68
2023-02-01T13:08:17.812Z,6.07
2023-02-01T13:13:29.837Z,7.65
2023-02-01T13:18:36.878Z,7.18
2023-02-01T13:23:41.066Z,5.32
2023-02-01T13:28:50.719Z,11.40
2023-02-01T13:34:30.883Z,3.97
2023-02-01T13:39:56.197Z,7.80
2023-02-01T13:45:00.530Z,5.25
2023-02-01T13:50:20.494Z,6.00
2023-02-01T13:55:22.425Z,6.65
2023-02-01T14:00:39.035Z,6.88
2023-02-01T14:05:40.691Z,15.20
2023-02-01T14:10:59.358Z,4.38
2023-02-01T14:16:04.302Z,7.05
2023-02-01T14:21:24.198Z,8.05
2023-02-01T14:26:27.806Z,14.07
2023-02-01T14:31:38.924Z,5.38
2023-02-01T14:37:33.347Z,7.25
2023-02-01T14:42:43.733Z,7.32
2023-02-01T14:47:48.842Z,7.18
2023-02-01T14:53:14.830Z,7.72
2023-02-01T14:58:28.153Z,5.68
2023-02-01T15:03:51.691Z,8.57
2023-02-01T15:09:18.916Z,11.02
2023-02-01T15:14:20.996Z,6.85
2023-02-01T15:19:28.564Z,8.95
2023-02-01T15:24:32.275Z,6.50
2023-02-01T15:29:34.509Z,6.43
2023-02-01T15:34:50.771Z,6.90
2023-02-01T15:40:10.901Z,9.25
2023-02-01T15:45:27.974Z,5.28
2023-02-01T15:50:32.231Z,8.25
2023-02-01T15:55:43.766Z,5.80
2023-02-01T16:00:52.923Z,6.40
2023-02-01T16:06:03.501Z,4.13
2023-02-01T16:11:37.228Z,1.05
2023-02-01T16:16:39.271Z,0.70
2023-02-01T16:21:41.126Z,1.80
2023-02-01T16:26:42.978Z,1.02
2023-02-01T16:31:46.278Z,1.45
2023-02-01T16:36:52.738Z,0.77
2023-02-01T16:41:54.663Z,0.82
2023-02-01T16:46:56.419Z,0.50
2023-02-01T16:51:59.453Z,2.47
2023-02-01T16:57:01.147Z,1.45
2023-02-01T17:02:02.917Z,3.35
2023-02-01T17:07:09.499Z,1.23
2023-02-01T17:12:31.918Z,2.75
2023-02-01T17:17:39.189Z,3.58
2023-02-01T17:22:41.253Z,4.22
2023-02-01T17:27:43.110Z,1.48
2023-02-01T17:32:45.389Z,0.95
2023-02-01T17:37:48.647Z,2.10
2023-02-01T17:42:52.449Z,2.40
2023-02-01T17:47:54.208Z,1.98
2023-02-01T17:52:55.982Z,2.53
2023-02-01T17:57:57.762Z,1.55
2023-02-01T18:03:00.653Z,1.23
2023-02-01T18:08:02.569Z,1.70
2023-02-01T18:13:05.078Z,3.28
2023-02-01T18:18:07.696Z,1.63
2023-02-01T18:23:16.039Z,5.10
2023-02-01T18:28:18.952Z,1.77
2023-02-01T18:33:21.465Z,3.95
2023-02-01T18:38:23.189Z,5.43
2023-02-01T18:43:26.604Z,3.47
2023-02-01T18:48:28.375Z,3.80
2023-02-01T18:53:30.403Z,5.00
2023-02-01T18:58:32.179Z,4.95
2023-02-01T19:03:33.952Z,4.40
2023-02-01T19:08:46.232Z,6.55
2023-02-01T19:13:50.786Z,2.63
2023-02-01T19:18:53.220Z,4.57
2023-02-01T19:23:54.996Z,4.50
2023-02-01T19:28:58.856Z,7.05
2023-02-01T19:34:00.783Z,3.50
2023-02-01T19:39:02.476Z,3.67
2023-02-01T19:44:05.785Z,5.75
2023-02-01T19:49:12.006Z,5.95
2023-02-01T19:54:14.289Z,6.78
2023-02-01T19:59:16.170Z,5.95
2023-02-01T20:04:19.370Z,8.15
2023-02-01T20:09:24.423Z,2.95
2023-02-01T20:14:27.458Z,2.55
2023-02-01T20:19:30.029Z,8.20
2023-02-01T20:24:32.111Z,4.38
2023-02-01T20:29:35.453Z,5.90
2023-02-01T20:34:37.229Z,5.00
2023-02-01T20:39:39.115Z,5.20
2023-02-01T20:44:41.079Z,5.97
2023-02-01T20:49:42.850Z,8.52
2023-02-01T20:54:44.742Z,4.40
2023-02-01T20:59:49.158Z,5.03
2023-02-01T21:04:50.828Z,3.13
2023-02-01T21:09:52.522Z,5.30
2023-02-01T21:14:55.464Z,3.92
2023-02-01T21:19:57.431Z,7.88
2023-02-01T21:25:00.718Z,6.88
2023-02-01T21:30:06.465Z,6.28
2023-02-01T21:35:09.365Z,4.90
2023-02-01T21:40:11.715Z,4.68
2023-02-01T21:45:15.969Z,3.53
2023-02-01T21:50:20.496Z,5.55
2023-02-01T21:55:22.621Z,7.28
2023-02-01T22:00:24.664Z,3.00
2023-02-01T22:05:27.097Z,4.32
2023-02-01T22:10:28.887Z,4.70
2023-02-01T22:15:31.482Z,7.00
2023-02-01T22:20:33.236Z,3.55
2023-02-01T22:25:35.182Z,5.28
2023-02-01T22:30:37.095Z,4.38
2023-02-01T22:35:39.603Z,3.38
2023-02-01T22:40:41.334Z,5.38
2023-02-01T22:45:43.071Z,3.22
2023-02-01T22:50:45.552Z,5.53
2023-02-01T22:55:47.267Z,6.40
2023-02-01T23:00:49.024Z,5.40
2023-02-01T23:05:50.745Z,7.30
2023-02-01T23:11:01.977Z,6.47
2023-02-01T23:16:14.237Z,8.02
2023-02-01T23:21:18.389Z,5.63
2023-02-01T23:26:20.689Z,6.18
2023-02-01T23:31:30.426Z,8.05
2023-02-01T23:36:33.737Z,7.80
2023-02-01T23:41:35.847Z,7.47
2023-02-01T23:46:41.234Z,6.97
2023-02-01T23:51:43.934Z,7.82
2023-02-01T23:56:46.539Z,6.20
